Terminal Aerodrome Forecast
Issued by NWS Binghamton, NY

Home | Current Version | Previous Version | Text Only | Print | Product List | Glossary On
Versions: 1 2 3 4 5 6 7 8 9 10 11 12 13 14 15 16 17 18
000
FTUS41 KBGM 191720
TAFSYR
TAF
KSYR 191720Z 1918/2018 29015KT 5SM -RA BR OVC015
      TEMPO 1918/1921 1 1/2SM -SHSN BR
     FM192200 28014G22KT 2SM -SN OVC018
     FM200100 28013G18KT 1SM -SN OVC015
      TEMPO 2003/2007 1/4SM +SN BLSN FG OVC008
     FM201100 27010G15KT 3SM -SN OVC015
     FM201500 25011KT P6SM -SN OVC022=

USA.gov is the U.S. government's official web portal to all federal, state and local government web resources and services.